createdAt,value
2022-08-19T00:00:41.308Z,767.40
2022-08-19T00:03:07.788Z,768.53
2022-08-19T00:05:34.250Z,763.33
2022-08-19T00:08:00.743Z,764.00
2022-08-19T00:10:27.218Z,766.43
2022-08-19T00:12:53.657Z,769.73
2022-08-19T00:15:20.171Z,769.53
2022-08-19T00:17:46.650Z,767.70
2022-08-19T00:20:13.114Z,767.53
2022-08-19T00:22:39.641Z,769.47
2022-08-19T00:25:06.124Z,767.20
2022-08-19T00:27:32.931Z,767.23
2022-08-19T00:29:59.397Z,767.20
2022-08-19T00:32:25.873Z,768.90
2022-08-19T00:34:53.711Z,763.30
2022-08-19T00:37:20.140Z,766.43
2022-08-19T00:39:46.614Z,769.23
2022-08-19T00:42:15.870Z,768.50
2022-08-19T00:44:42.380Z,769.53
2022-08-19T00:47:14.108Z,767.83
2022-08-19T00:49:40.923Z,771.03
2022-08-19T00:52:07.380Z,767.60
2022-08-19T00:54:33.869Z,769.63
2022-08-19T00:57:00.355Z,765.57
2022-08-19T00:59:56.373Z,770.83
2022-08-19T01:02:13.282Z,765.23
2022-08-19T01:04:39.798Z,768.60
2022-08-19T01:07:06.237Z,760.47
2022-08-19T01:09:32.687Z,770.17
2022-08-19T01:11:59.164Z,764.40
2022-08-19T01:14:25.613Z,765.17
2022-08-19T01:16:52.075Z,766.70
2022-08-19T01:19:18.646Z,765.87
2022-08-19T01:21:45.108Z,767.03
2022-08-19T01:24:11.552Z,763.73
2022-08-19T01:26:38.059Z,770.43
2022-08-19T01:29:05.352Z,769.70
2022-08-19T01:31:32.738Z,767.70
2022-08-19T01:33:59.625Z,768.60
2022-08-19T01:36:26.144Z,768.60
2022-08-19T01:38:52.581Z,765.70
2022-08-19T01:41:19.142Z,768.80
2022-08-19T01:44:09.789Z,765.40
2022-08-19T01:46:32.102Z,763.97
2022-08-19T01:48:58.584Z,768.27
2022-08-19T01:51:25.052Z,768.13
2022-08-19T01:53:51.515Z,767.30
2022-08-19T01:56:17.991Z,761.60
2022-08-19T01:58:44.454Z,765.47
2022-08-19T02:01:10.983Z,766.90
2022-08-19T02:03:37.464Z,770.00
2022-08-19T02:06:03.940Z,758.80
2022-08-19T02:08:33.233Z,764.90
2022-08-19T02:10:59.716Z,765.17
2022-08-19T02:13:26.227Z,771.53
2022-08-19T02:15:53.160Z,767.00
2022-08-19T02:18:19.727Z,758.43
2022-08-19T02:20:46.165Z,764.03
2022-08-19T02:23:13.704Z,770.83
2022-08-19T02:25:42.407Z,765.13
2022-08-19T02:28:08.877Z,769.00
2022-08-19T02:30:35.347Z,769.53
2022-08-19T02:33:01.865Z,765.03
2022-08-19T02:35:28.328Z,767.37
2022-08-19T02:37:54.797Z,766.80
2022-08-19T02:40:21.248Z,767.80
2022-08-19T02:42:47.771Z,767.50
2022-08-19T02:45:14.319Z,764.70
2022-08-19T02:47:40.831Z,766.50
2022-08-19T02:50:07.358Z,767.60
2022-08-19T02:52:33.848Z,767.10
2022-08-19T02:55:00.347Z,765.83
2022-08-19T02:57:26.809Z,769.03
2022-08-19T02:59:53.285Z,767.30
2022-08-19T03:02:19.741Z,765.53
2022-08-19T03:04:46.194Z,770.90
2022-08-19T03:07:12.837Z,769.83
2022-08-19T03:09:39.374Z,773.80
2022-08-19T03:12:05.836Z,768.10
2022-08-19T03:14:32.324Z,768.73
2022-08-19T03:16:58.773Z,758.10
2022-08-19T03:19:25.232Z,768.70
2022-08-19T03:21:52.603Z,762.30
2022-08-19T03:24:19.064Z,768.87
2022-08-19T03:26:45.552Z,765.87
2022-08-19T03:29:13.258Z,764.13
2022-08-19T03:31:43.283Z,766.00
2022-08-19T03:34:12.334Z,764.13
2022-08-19T03:36:38.793Z,763.90
2022-08-19T03:39:05.258Z,768.27
2022-08-19T03:41:44.476Z,761.17
2022-08-19T03:44:18.118Z,766.00
2022-08-19T03:46:45.217Z,763.60
2022-08-19T03:49:11.793Z,768.70
2022-08-19T03:51:40.946Z,763.83
2022-08-19T03:54:07.395Z,765.07
2022-08-19T03:56:33.870Z,770.13
2022-08-19T03:59:00.298Z,772.25
2022-08-19T04:01:34.910Z,769.03
2022-08-19T04:04:02.023Z,767.13
2022-08-19T04:06:29.909Z,766.13
2022-08-19T04:08:56.373Z,771.10
2022-08-19T04:11:22.841Z,761.07
2022-08-19T04:14:09.302Z,767.47
2022-08-19T04:16:35.799Z,761.87
2022-08-19T04:19:02.257Z,764.90
2022-08-19T04:21:28.783Z,766.90
2022-08-19T04:23:55.235Z,766.03
2022-08-19T04:26:22.356Z,765.20
2022-08-19T04:28:48.800Z,765.90
2022-08-19T04:31:15.414Z,765.53
2022-08-19T04:33:44.036Z,766.80
2022-08-19T04:36:10.598Z,764.83
2022-08-19T04:38:37.081Z,767.03
2022-08-19T04:41:03.854Z,773.30
2022-08-19T04:43:30.485Z,786.60
2022-08-19T04:46:00.882Z,780.33
2022-08-19T04:48:29.072Z,784.53
2022-08-19T04:50:56.290Z,769.20
2022-08-19T04:53:22.852Z,770.83
2022-08-19T04:55:49.348Z,768.23
2022-08-19T04:58:15.797Z,760.70
2022-08-19T05:00:42.497Z,771.40
2022-08-19T05:03:08.974Z,762.73
2022-08-19T05:05:44.707Z,766.93
2022-08-19T05:08:12.082Z,763.70
2022-08-19T05:10:41.705Z,767.17
2022-08-19T05:13:08.203Z,765.60
2022-08-19T05:15:34.662Z,765.00
2022-08-19T05:18:01.146Z,765.90
2022-08-19T05:20:27.641Z,765.13
2022-08-19T05:22:54.332Z,763.90
2022-08-19T05:25:20.956Z,766.50
2022-08-19T05:27:47.442Z,762.50
2022-08-19T05:30:13.897Z,768.27
2022-08-19T05:32:40.392Z,768.20
2022-08-19T05:35:06.850Z,769.97
2022-08-19T05:37:33.306Z,765.63
2022-08-19T05:39:59.864Z,768.93
2022-08-19T05:42:26.380Z,763.83
2022-08-19T05:44:52.829Z,769.20
2022-08-19T05:47:19.351Z,762.63
2022-08-19T05:49:45.832Z,768.30
2022-08-19T05:52:12.425Z,792.93
2022-08-19T05:54:39.281Z,793.10
2022-08-19T05:57:05.938Z,793.20
2022-08-19T05:59:32.511Z,797.03
2022-08-19T06:01:59.252Z,788.53
2022-08-19T06:04:25.830Z,790.30
2022-08-19T06:06:52.655Z,769.43
2022-08-19T06:09:22.813Z,769.73
2022-08-19T06:11:51.811Z,776.37
2022-08-19T06:14:20.935Z,777.47
2022-08-19T06:16:54.635Z,772.23
2022-08-19T06:19:21.283Z,774.70
2022-08-19T06:21:47.997Z,778.00
2022-08-19T06:24:15.973Z,762.67
2022-08-19T06:26:42.607Z,771.27
2022-08-19T06:29:09.160Z,767.03
2022-08-19T06:31:35.648Z,771.50
2022-08-19T06:34:02.140Z,768.00
2022-08-19T06:36:30.564Z,768.93
2022-08-19T06:38:57.054Z,770.37
2022-08-19T06:41:23.524Z,762.20
2022-08-19T06:43:54.203Z,762.00
2022-08-19T06:46:23.036Z,774.20
2022-08-19T06:48:49.668Z,766.83
2022-08-19T06:51:16.231Z,770.90
2022-08-19T06:53:45.812Z,770.40
2022-08-19T06:56:14.267Z,767.80
2022-08-19T06:58:40.731Z,769.97
2022-08-19T07:01:09.186Z,770.97
2022-08-19T07:03:35.931Z,765.50
2022-08-19T07:06:05.378Z,763.90
2022-08-19T07:08:33.699Z,768.10
2022-08-19T07:11:01.191Z,768.77
2022-08-19T07:13:27.747Z,767.80
2022-08-19T07:15:54.340Z,765.17
2022-08-19T07:18:20.877Z,769.60
2022-08-19T07:20:47.412Z,759.73
2022-08-19T07:23:15.772Z,770.00
2022-08-19T07:25:42.756Z,769.97
2022-08-19T07:28:09.280Z,767.40
2022-08-19T07:30:45.558Z,763.80
2022-08-19T07:33:12.840Z,766.60
2022-08-19T07:35:41.301Z,764.00
2022-08-19T07:38:07.824Z,765.73
2022-08-19T07:40:34.294Z,764.50
2022-08-19T07:43:00.799Z,773.93
2022-08-19T07:45:27.275Z,767.23
2022-08-19T07:47:53.833Z,773.93
2022-08-19T07:50:20.396Z,768.00
2022-08-19T07:52:49.086Z,769.17
2022-08-19T07:55:41.764Z,769.13
2022-08-19T07:58:02.280Z,765.23
2022-08-19T08:00:31.212Z,760.83
2022-08-19T08:02:57.878Z,770.63
2022-08-19T08:05:24.489Z,765.00
2022-08-19T08:07:51.002Z,765.97
2022-08-19T08:10:20.715Z,767.77
2022-08-19T08:13:05.838Z,770.00
2022-08-19T08:15:36.623Z,765.73
2022-08-19T08:18:06.553Z,765.57
2022-08-19T08:20:37.402Z,766.03
2022-08-19T08:23:03.898Z,774.10
2022-08-19T08:25:32.543Z,766.13
2022-08-19T08:28:00.732Z,772.23
2022-08-19T08:30:27.210Z,772.50
2022-08-19T08:32:57.716Z,768.87
2022-08-19T08:35:24.813Z,769.33
2022-08-19T08:37:51.435Z,769.83
2022-08-19T08:40:18.162Z,773.23
2022-08-19T08:42:44.766Z,767.60
2022-08-19T08:45:11.253Z,769.70
2022-08-19T08:47:38.164Z,765.03
2022-08-19T08:50:08.474Z,767.40
2022-08-19T08:52:34.965Z,771.27
2022-08-19T08:55:01.465Z,764.60
2022-08-19T08:57:27.929Z,770.10
2022-08-19T08:59:56.954Z,766.03
2022-08-19T09:02:24.914Z,769.10
2022-08-19T09:04:51.382Z,769.13
2022-08-19T09:07:18.638Z,771.73
2022-08-19T09:10:02.169Z,771.93
2022-08-19T09:12:28.624Z,770.40
2022-08-19T09:14:55.212Z,770.93
2022-08-19T09:17:21.642Z,770.60
2022-08-19T09:19:48.374Z,768.17
2022-08-19T09:22:15.484Z,769.07
2022-08-19T09:24:52.416Z,766.83
2022-08-19T09:27:19.047Z,767.53
2022-08-19T09:29:45.627Z,766.33
2022-08-19T09:32:26.736Z,765.33
2022-08-19T09:34:53.635Z,765.70
2022-08-19T09:37:20.955Z,770.37
2022-08-19T09:39:47.619Z,765.07
2022-08-19T09:42:30.472Z,767.43
2022-08-19T09:45:01.857Z,762.47
2022-08-19T09:47:31.559Z,768.13
2022-08-19T09:49:58.203Z,766.50
2022-08-19T09:52:25.049Z,767.70
2022-08-19T09:54:51.930Z,771.30
2022-08-19T09:57:18.623Z,766.80
2022-08-19T09:59:45.086Z,763.97
2022-08-19T10:02:11.559Z,761.23
2022-08-19T10:04:39.174Z,764.80
2022-08-19T10:07:06.841Z,766.17
2022-08-19T10:09:34.280Z,769.87
2022-08-19T10:12:01.213Z,774.93
2022-08-19T10:14:29.063Z,770.40
2022-08-19T10:16:55.600Z,774.67
2022-08-19T10:19:25.334Z,770.70
2022-08-19T10:21:52.704Z,769.30
2022-08-19T10:24:19.573Z,767.83
2022-08-19T10:26:46.071Z,768.93
2022-08-19T10:29:13.337Z,770.03
2022-08-19T10:32:02.708Z,770.23
2022-08-19T10:34:29.528Z,769.77
2022-08-19T10:37:00.439Z,764.13
2022-08-19T10:39:30.644Z,770.73
2022-08-19T10:41:57.284Z,771.77
2022-08-19T10:44:23.748Z,771.83
2022-08-19T10:46:50.351Z,770.00
2022-08-19T10:49:16.843Z,767.23
2022-08-19T10:51:47.792Z,770.73
2022-08-19T10:54:15.207Z,772.00
2022-08-19T10:56:41.883Z,771.90
2022-08-19T10:59:08.319Z,772.37
2022-08-19T11:01:34.868Z,759.03
2022-08-19T11:04:01.414Z,771.30
2022-08-19T11:06:27.848Z,767.13
2022-08-19T11:08:54.435Z,772.03
2022-08-19T11:11:21.015Z,768.13
2022-08-19T11:13:47.633Z,768.63
2022-08-19T11:16:14.108Z,773.73
2022-08-19T11:18:40.577Z,764.20
2022-08-19T11:21:07.046Z,767.63
2022-08-19T11:23:33.509Z,762.50
2022-08-19T11:25:59.977Z,769.77
2022-08-19T11:28:26.503Z,767.93
2022-08-19T11:30:52.945Z,772.03
2022-08-19T11:33:19.391Z,767.33
2022-08-19T11:35:45.832Z,767.63
2022-08-19T11:38:12.297Z,770.30
2022-08-19T11:40:38.815Z,768.27
2022-08-19T11:43:05.283Z,769.70
2022-08-19T11:45:31.752Z,769.87
2022-08-19T11:47:58.207Z,765.20
2022-08-19T11:50:24.695Z,765.37
2022-08-19T11:52:51.180Z,770.73
2022-08-19T11:55:17.611Z,769.33
2022-08-19T11:57:44.111Z,767.60
2022-08-19T12:00:10.574Z,772.30
2022-08-19T12:02:37.035Z,770.73
2022-08-19T12:05:03.472Z,759.77
2022-08-19T12:07:29.901Z,768.47
2022-08-19T12:09:56.360Z,767.20
2022-08-19T12:12:22.822Z,774.50
2022-08-19T12:14:49.260Z,764.47
2022-08-19T12:17:15.842Z,772.20
2022-08-19T12:19:42.389Z,771.10
2022-08-19T12:22:08.851Z,769.03
2022-08-19T12:24:35.304Z,769.10
2022-08-19T12:27:03.101Z,768.77
2022-08-19T12:29:29.749Z,767.00
2022-08-19T12:31:56.262Z,767.77
2022-08-19T12:34:22.728Z,768.10
2022-08-19T12:36:49.217Z,765.53
2022-08-19T12:39:15.688Z,772.23
2022-08-19T12:41:51.257Z,768.07
2022-08-19T12:44:20.873Z,771.93
2022-08-19T12:46:55.557Z,770.50
2022-08-19T12:49:53.260Z,766.90
2022-08-19T12:52:08.501Z,769.10
2022-08-19T12:54:34.935Z,771.10
2022-08-19T12:57:01.406Z,769.23
2022-08-19T12:59:27.854Z,771.50
2022-08-19T13:01:54.339Z,771.00
2022-08-19T13:04:20.871Z,774.73
2022-08-19T13:06:47.330Z,763.93
2022-08-19T13:09:13.787Z,768.93
2022-08-19T13:11:40.274Z,766.60
2022-08-19T13:14:06.754Z,768.40
2022-08-19T13:16:33.251Z,769.20
2022-08-19T13:18:59.892Z,771.93
2022-08-19T13:21:26.432Z,772.53
2022-08-19T13:23:52.954Z,760.23
2022-08-19T13:26:19.524Z,769.40
2022-08-19T13:28:46.022Z,774.13
2022-08-19T13:31:12.475Z,772.53
2022-08-19T13:33:38.933Z,773.10
2022-08-19T13:36:05.425Z,774.10
2022-08-19T13:38:31.873Z,766.83
2022-08-19T13:40:58.331Z,769.13
2022-08-19T13:43:24.772Z,762.23
2022-08-19T13:45:51.234Z,770.83
2022-08-19T13:48:17.728Z,764.50
2022-08-19T13:50:44.162Z,769.53
2022-08-19T13:53:10.603Z,767.53
2022-08-19T13:55:37.070Z,767.60
2022-08-19T13:58:03.537Z,765.23
2022-08-19T14:00:30.065Z,765.80
2022-08-19T14:02:56.545Z,770.73
2022-08-19T14:05:23.036Z,761.90
2022-08-19T14:07:49.587Z,764.93
2022-08-19T14:10:16.109Z,771.80
2022-08-19T14:12:42.620Z,764.67
2022-08-19T14:15:09.255Z,767.40
2022-08-19T14:17:38.518Z,770.03
2022-08-19T14:20:10.921Z,765.63
2022-08-19T14:22:37.542Z,765.43
2022-08-19T14:25:04.059Z,766.20
2022-08-19T14:27:30.589Z,768.90
2022-08-19T14:29:57.043Z,762.13
2022-08-19T14:32:23.526Z,772.23
2022-08-19T14:34:50.020Z,769.60
2022-08-19T14:37:16.477Z,769.10
2022-08-19T14:39:43.043Z,766.47
2022-08-19T14:42:11.442Z,774.80
2022-08-19T14:44:38.095Z,769.80
2022-08-19T14:47:04.575Z,766.10
2022-08-19T14:49:35.900Z,768.53
2022-08-19T14:52:08.826Z,759.47
2022-08-19T14:54:35.279Z,760.03
2022-08-19T14:57:01.740Z,770.93
2022-08-19T14:59:28.173Z,771.80
2022-08-19T15:01:54.691Z,771.23
2022-08-19T15:04:21.177Z,767.03
2022-08-19T15:06:47.675Z,769.37
2022-08-19T15:09:14.127Z,771.73
2022-08-19T15:11:40.594Z,763.83
2022-08-19T15:14:07.033Z,770.60
2022-08-19T15:16:33.570Z,768.60
2022-08-19T15:19:00.003Z,770.67
2022-08-19T15:21:27.504Z,757.80
2022-08-19T15:23:54.140Z,767.40
2022-08-19T15:26:20.632Z,768.23
2022-08-19T15:28:47.135Z,767.07
2022-08-19T15:31:25.513Z,767.93
2022-08-19T15:33:55.093Z,766.93
2022-08-19T15:36:21.530Z,767.20
2022-08-19T15:38:48.323Z,770.13
2022-08-19T15:41:14.886Z,767.63
2022-08-19T15:43:41.388Z,771.73
2022-08-19T15:46:07.847Z,766.43
2022-08-19T15:48:34.280Z,764.40
2022-08-19T15:51:00.755Z,769.90
2022-08-19T15:53:27.256Z,768.57
2022-08-19T15:55:53.725Z,763.60
2022-08-19T15:58:21.849Z,776.13
2022-08-19T16:00:55.584Z,771.10
2022-08-19T16:03:22.031Z,769.90
2022-08-19T16:05:48.533Z,768.93
2022-08-19T16:08:14.998Z,765.20
2022-08-19T16:10:41.457Z,725.03
2022-08-19T16:13:07.930Z,676.97
2022-08-19T16:15:34.369Z,743.80
2022-08-19T16:18:00.831Z,753.90
2022-08-19T16:20:27.516Z,748.77
2022-08-19T16:22:54.116Z,751.07
2022-08-19T16:25:21.616Z,752.43
2022-08-19T16:27:54.331Z,751.17
2022-08-19T16:30:34.494Z,754.90
2022-08-19T16:33:00.941Z,755.50
2022-08-19T16:35:27.379Z,751.47
2022-08-19T16:37:53.958Z,757.33
2022-08-19T16:40:20.586Z,751.83
2022-08-19T16:42:47.096Z,749.20
2022-08-19T16:45:13.585Z,750.00
2022-08-19T16:47:40.059Z,752.23
2022-08-19T16:50:06.492Z,753.50
2022-08-19T16:52:32.980Z,756.00
2022-08-19T16:54:59.435Z,748.07
2022-08-19T16:57:25.897Z,745.00
2022-08-19T16:59:52.354Z,758.73
2022-08-19T17:02:18.828Z,755.63
2022-08-19T17:04:55.756Z,749.93
2022-08-19T17:07:24.947Z,751.43
2022-08-19T17:09:51.396Z,753.33
2022-08-19T17:12:17.896Z,746.50
2022-08-19T17:14:45.730Z,751.80
2022-08-19T17:17:12.215Z,746.83
2022-08-19T17:19:38.670Z,746.07
2022-08-19T17:22:05.138Z,750.93
2022-08-19T17:24:31.587Z,747.33
2022-08-19T17:26:58.018Z,744.10
2022-08-19T17:29:24.457Z,751.37
2022-08-19T17:31:50.890Z,758.13
2022-08-19T17:34:17.331Z,754.07
2022-08-19T17:36:43.795Z,754.27
2022-08-19T17:39:10.230Z,750.37
2022-08-19T17:41:36.720Z,749.17
2022-08-19T17:44:03.160Z,745.90
2022-08-19T17:46:29.627Z,744.77
2022-08-19T17:48:56.074Z,748.53
2022-08-19T17:51:22.602Z,751.27
2022-08-19T17:53:49.082Z,747.93
2022-08-19T17:56:15.538Z,743.83
2022-08-19T17:58:41.991Z,752.93
2022-08-19T18:01:11.629Z,751.93
2022-08-19T18:03:39.572Z,747.57
2022-08-19T18:06:06.044Z,746.77
2022-08-19T18:08:32.497Z,748.93
2022-08-19T18:10:58.962Z,748.50
2022-08-19T18:13:25.442Z,747.63
2022-08-19T18:15:51.875Z,752.57
2022-08-19T18:18:18.308Z,748.30
2022-08-19T18:20:44.743Z,745.80
2022-08-19T18:23:44.430Z,746.70
2022-08-19T18:25:57.610Z,744.80
2022-08-19T18:28:24.050Z,750.53
2022-08-19T18:30:50.478Z,754.53
2022-08-19T18:33:16.962Z,746.57
2022-08-19T18:35:43.419Z,755.13
2022-08-19T18:38:13.765Z,752.93
2022-08-19T18:40:40.219Z,742.97
2022-08-19T18:43:06.683Z,735.63
2022-08-19T18:45:33.169Z,750.80
2022-08-19T18:47:59.619Z,740.60
2022-08-19T18:50:26.088Z,751.30
2022-08-19T18:52:52.543Z,738.97
2022-08-19T18:55:18.990Z,739.70
2022-08-19T18:57:45.447Z,742.37
2022-08-19T19:00:11.895Z,740.83
2022-08-19T19:02:38.355Z,746.23
2022-08-19T19:05:07.199Z,737.97
2022-08-19T19:07:34.042Z,747.70
2022-08-19T19:10:00.468Z,745.87
2022-08-19T19:12:27.000Z,743.40
2022-08-19T19:14:53.438Z,747.57
2022-08-19T19:17:19.952Z,745.33
2022-08-19T19:19:46.415Z,742.37
2022-08-19T19:22:12.882Z,742.47
2022-08-19T19:24:39.317Z,745.37
2022-08-19T19:27:05.981Z,747.83
2022-08-19T19:29:32.423Z,750.00
2022-08-19T19:31:59.064Z,741.20
2022-08-19T19:34:29.925Z,750.93
2022-08-19T19:36:56.590Z,747.97
2022-08-19T19:39:30.693Z,754.73
2022-08-19T19:42:12.539Z,743.70
2022-08-19T19:44:47.288Z,749.50
2022-08-19T19:47:13.842Z,751.33
2022-08-19T19:49:57.887Z,745.70
2022-08-19T19:52:26.719Z,746.60
2022-08-19T19:54:53.163Z,748.23
2022-08-19T19:57:19.611Z,743.57
2022-08-19T19:59:51.186Z,743.57
2022-08-19T20:02:18.173Z,747.67
2022-08-19T20:04:44.652Z,742.13
2022-08-19T20:07:11.115Z,744.53
2022-08-19T20:09:58.416Z,743.30
2022-08-19T20:12:23.996Z,743.00
2022-08-19T20:14:50.442Z,748.70
2022-08-19T20:17:16.886Z,741.70
2022-08-19T20:19:43.331Z,740.20
2022-08-19T20:22:09.792Z,748.13
2022-08-19T20:24:37.417Z,751.77
2022-08-19T20:27:03.877Z,751.97
2022-08-19T20:29:38.943Z,740.93
2022-08-19T20:32:07.825Z,739.83
2022-08-19T20:34:34.263Z,745.10
2022-08-19T20:37:00.701Z,740.23
2022-08-19T20:39:27.163Z,739.70
2022-08-19T20:41:53.617Z,739.00
2022-08-19T20:44:20.057Z,744.07
2022-08-19T20:46:55.484Z,745.00
2022-08-19T20:49:27.556Z,739.40
2022-08-19T20:51:54.707Z,739.23
2022-08-19T20:54:21.166Z,743.17
2022-08-19T20:56:47.591Z,744.40
2022-08-19T20:59:14.047Z,741.20
2022-08-19T21:01:40.462Z,734.73
2022-08-19T21:04:06.903Z,738.13
2022-08-19T21:06:33.335Z,741.73
2022-08-19T21:08:59.785Z,731.23
2022-08-19T21:11:26.225Z,733.60
2022-08-19T21:13:52.690Z,734.90
2022-08-19T21:16:19.121Z,741.87
2022-08-19T21:18:45.575Z,742.30
2022-08-19T21:21:12.045Z,729.40
2022-08-19T21:23:38.516Z,746.53
2022-08-19T21:26:04.964Z,745.23
2022-08-19T21:28:35.187Z,736.83
2022-08-19T21:31:03.043Z,738.93
2022-08-19T21:33:31.690Z,744.70
2022-08-19T21:35:58.494Z,753.60
2022-08-19T21:38:24.987Z,752.23
2022-08-19T21:40:51.410Z,750.10
2022-08-19T21:43:17.928Z,740.50
2022-08-19T21:45:44.365Z,740.47
2022-08-19T21:48:10.833Z,735.90
2022-08-19T21:50:37.303Z,740.83
2022-08-19T21:53:03.826Z,736.87
2022-08-19T21:55:30.295Z,741.90
2022-08-19T21:57:56.858Z,745.13
2022-08-19T22:00:23.458Z,740.23
2022-08-19T22:02:51.079Z,749.00
2022-08-19T22:05:17.531Z,752.07
2022-08-19T22:07:46.057Z,755.53
2022-08-19T22:10:12.498Z,749.17
2022-08-19T22:12:38.963Z,746.63
2022-08-19T22:15:16.815Z,743.67
2022-08-19T22:17:44.980Z,742.90
2022-08-19T22:20:11.446Z,739.30
2022-08-19T22:22:37.910Z,734.37
2022-08-19T22:25:04.362Z,743.17
2022-08-19T22:27:30.813Z,739.87
2022-08-19T22:29:57.250Z,747.33
2022-08-19T22:32:28.116Z,740.40
2022-08-19T22:34:55.270Z,738.63
2022-08-19T22:37:21.702Z,742.30
2022-08-19T22:39:48.174Z,743.93
2022-08-19T22:42:14.642Z,734.80
2022-08-19T22:44:41.083Z,738.00
2022-08-19T22:47:07.543Z,735.77
2022-08-19T22:49:34.001Z,732.97
2022-08-19T22:52:00.441Z,732.40
2022-08-19T22:54:26.900Z,734.83
2022-08-19T22:56:53.343Z,733.60
2022-08-19T22:59:19.803Z,747.10
2022-08-19T23:01:46.251Z,745.17
2022-08-19T23:04:12.749Z,739.57
2022-08-19T23:06:42.036Z,743.43
2022-08-19T23:09:08.920Z,736.50
2022-08-19T23:11:35.370Z,734.70
2022-08-19T23:14:01.983Z,735.30
2022-08-19T23:16:28.451Z,738.17
2022-08-19T23:18:56.004Z,735.23
2022-08-19T23:21:22.653Z,740.93
2022-08-19T23:23:49.103Z,735.30
2022-08-19T23:26:15.541Z,732.10
2022-08-19T23:28:42.054Z,740.07
2022-08-19T23:31:08.503Z,746.23
2022-08-19T23:33:51.049Z,741.37
2022-08-19T23:36:18.420Z,740.27
2022-08-19T23:38:44.893Z,741.73
2022-08-19T23:41:11.329Z,747.17
2022-08-19T23:43:37.775Z,743.93
2022-08-19T23:46:10.561Z,743.90
2022-08-19T23:48:37.546Z,737.00
2022-08-19T23:51:06.845Z,739.03
2022-08-19T23:53:33.636Z,741.63
2022-08-19T23:56:00.168Z,734.33
2022-08-19T23:58:27.758Z,747.57
